sensor_id;sensor_type;location;lat;lon;timestamp;P1;durP1;ratioP1;P2;durP2;ratioP2
10041;SDS011;5061;49.068;12.058;2023-04-03T00:01:46;1.93;;;1.83;;
10041;SDS011;5061;49.068;12.058;2023-04-03T00:05:07;2.67;;;1.97;;
10041;SDS011;5061;49.068;12.058;2023-04-03T00:08:27;2.90;;;1.80;;
10041;SDS011;5061;49.068;12.058;2023-04-03T00:11:50;2.20;;;2.03;;
10041;SDS011;5061;49.068;12.058;2023-04-03T00:15:11;3.73;;;2.50;;
10041;SDS011;5061;49.068;12.058;2023-04-03T00:18:32;1.87;;;1.77;;
10041;SDS011;5061;49.068;12.058;2023-04-03T00:21:52;2.70;;;2.10;;
10041;SDS011;5061;49.068;12.058;2023-04-03T00:25:13;1.63;;;1.53;;
10041;SDS011;5061;49.068;12.058;2023-04-03T00:28:34;4.37;;;2.53;;
10041;SDS011;5061;49.068;12.058;2023-04-03T00:31:55;2.30;;;2.10;;
10041;SDS011;5061;49.068;12.058;2023-04-03T00:35:15;2.80;;;2.30;;
10041;SDS011;5061;49.068;12.058;2023-04-03T00:38:37;2.80;;;2.20;;
10041;SDS011;5061;49.068;12.058;2023-04-03T00:41:58;2.43;;;1.90;;
10041;SDS011;5061;49.068;12.058;2023-04-03T00:45:23;3.30;;;2.43;;
10041;SDS011;5061;49.068;12.058;2023-04-03T00:48:45;1.90;;;1.80;;
10041;SDS011;5061;49.068;12.058;2023-04-03T00:52:08;3.20;;;2.43;;
10041;SDS011;5061;49.068;12.058;2023-04-03T00:55:34;3.27;;;1.97;;
10041;SDS011;5061;49.068;12.058;2023-04-03T00:59:00;3.10;;;2.33;;
10041;SDS011;5061;49.068;12.058;2023-04-03T01:02:28;2.70;;;2.30;;
10041;SDS011;5061;49.068;12.058;2023-04-03T01:05:49;2.47;;;2.27;;
10041;SDS011;5061;49.068;12.058;2023-04-03T01:09:10;2.43;;;2.13;;
10041;SDS011;5061;49.068;12.058;2023-04-03T01:12:36;3.20;;;2.47;;
10041;SDS011;5061;49.068;12.058;2023-04-03T01:16:02;3.70;;;2.50;;
10041;SDS011;5061;49.068;12.058;2023-04-03T01:19:26;2.20;;;1.93;;
10041;SDS011;5061;49.068;12.058;2023-04-03T01:22:54;3.93;;;2.93;;
10041;SDS011;5061;49.068;12.058;2023-04-03T01:26:17;2.40;;;2.20;;
10041;SDS011;5061;49.068;12.058;2023-04-03T01:29:38;2.73;;;2.20;;
10041;SDS011;5061;49.068;12.058;2023-04-03T01:33:00;3.00;;;2.60;;
10041;SDS011;5061;49.068;12.058;2023-04-03T01:36:22;2.77;;;2.50;;
10041;SDS011;5061;49.068;12.058;2023-04-03T01:39:48;2.40;;;2.20;;
10041;SDS011;5061;49.068;12.058;2023-04-03T01:43:08;2.27;;;2.07;;
10041;SDS011;5061;49.068;12.058;2023-04-03T01:46:30;2.80;;;2.50;;
10041;SDS011;5061;49.068;12.058;2023-04-03T01:49:50;3.00;;;2.63;;
10041;SDS011;5061;49.068;12.058;2023-04-03T01:53:11;2.60;;;2.40;;
10041;SDS011;5061;49.068;12.058;2023-04-03T01:56:33;2.30;;;2.10;;
10041;SDS011;5061;49.068;12.058;2023-04-03T01:59:53;4.17;;;2.93;;
10041;SDS011;5061;49.068;12.058;2023-04-03T02:03:14;3.83;;;2.70;;
10041;SDS011;5061;49.068;12.058;2023-04-03T02:06:35;3.20;;;2.63;;
10041;SDS011;5061;49.068;12.058;2023-04-03T02:09:55;5.10;;;2.53;;
10041;SDS011;5061;49.068;12.058;2023-04-03T02:13:16;2.90;;;2.40;;
10041;SDS011;5061;49.068;12.058;2023-04-03T02:16:37;2.27;;;2.13;;
10041;SDS011;5061;49.068;12.058;2023-04-03T02:19:58;2.90;;;2.17;;
10041;SDS011;5061;49.068;12.058;2023-04-03T02:23:19;3.10;;;2.50;;
10041;SDS011;5061;49.068;12.058;2023-04-03T02:26:39;3.53;;;3.00;;
10041;SDS011;5061;49.068;12.058;2023-04-03T02:30:00;2.13;;;1.93;;
10041;SDS011;5061;49.068;12.058;2023-04-03T02:33:21;3.97;;;2.30;;
10041;SDS011;5061;49.068;12.058;2023-04-03T02:36:42;2.97;;;2.63;;
10041;SDS011;5061;49.068;12.058;2023-04-03T02:40:03;3.90;;;3.03;;
10041;SDS011;5061;49.068;12.058;2023-04-03T02:43:24;2.67;;;2.47;;
10041;SDS011;5061;49.068;12.058;2023-04-03T02:46:44;2.67;;;2.20;;
10041;SDS011;5061;49.068;12.058;2023-04-03T02:50:05;2.80;;;2.47;;
10041;SDS011;5061;49.068;12.058;2023-04-03T02:53:26;2.63;;;2.40;;
10041;SDS011;5061;49.068;12.058;2023-04-03T02:56:46;2.93;;;2.63;;
10041;SDS011;5061;49.068;12.058;2023-04-03T03:00:07;3.20;;;2.40;;
10041;SDS011;5061;49.068;12.058;2023-04-03T03:03:29;3.20;;;2.43;;
10041;SDS011;5061;49.068;12.058;2023-04-03T03:06:50;2.50;;;2.30;;
10041;SDS011;5061;49.068;12.058;2023-04-03T03:10:10;3.03;;;2.37;;
10041;SDS011;5061;49.068;12.058;2023-04-03T03:13:31;4.13;;;2.27;;
10041;SDS011;5061;49.068;12.058;2023-04-03T03:16:52;3.10;;;2.80;;
10041;SDS011;5061;49.068;12.058;2023-04-03T03:20:13;3.80;;;3.10;;
10041;SDS011;5061;49.068;12.058;2023-04-03T03:23:36;3.33;;;2.40;;
10041;SDS011;5061;49.068;12.058;2023-04-03T03:26:57;3.00;;;2.70;;
10041;SDS011;5061;49.068;12.058;2023-04-03T03:30:18;3.77;;;2.50;;
10041;SDS011;5061;49.068;12.058;2023-04-03T03:33:38;5.20;;;3.00;;
10041;SDS011;5061;49.068;12.058;2023-04-03T03:36:59;3.03;;;2.07;;
10041;SDS011;5061;49.068;12.058;2023-04-03T03:40:20;3.13;;;2.40;;
10041;SDS011;5061;49.068;12.058;2023-04-03T03:43:41;2.63;;;2.33;;
10041;SDS011;5061;49.068;12.058;2023-04-03T03:47:01;4.53;;;2.67;;
10041;SDS011;5061;49.068;12.058;2023-04-03T03:50:23;2.90;;;2.33;;
10041;SDS011;5061;49.068;12.058;2023-04-03T03:53:43;2.20;;;2.00;;
10041;SDS011;5061;49.068;12.058;2023-04-03T03:57:04;2.37;;;2.17;;
10041;SDS011;5061;49.068;12.058;2023-04-03T04:00:25;2.50;;;2.30;;
10041;SDS011;5061;49.068;12.058;2023-04-03T04:03:45;2.60;;;2.37;;
10041;SDS011;5061;49.068;12.058;2023-04-03T04:07:06;2.90;;;2.40;;
10041;SDS011;5061;49.068;12.058;2023-04-03T04:10:26;4.40;;;2.30;;
10041;SDS011;5061;49.068;12.058;2023-04-03T04:13:47;5.40;;;2.23;;
10041;SDS011;5061;49.068;12.058;2023-04-03T04:17:08;2.90;;;2.60;;
10041;SDS011;5061;49.068;12.058;2023-04-03T04:20:28;2.40;;;2.20;;
10041;SDS011;5061;49.068;12.058;2023-04-03T04:23:49;3.00;;;2.50;;
10041;SDS011;5061;49.068;12.058;2023-04-03T04:27:09;3.57;;;2.00;;
10041;SDS011;5061;49.068;12.058;2023-04-03T04:30:30;3.67;;;2.60;;
10041;SDS011;5061;49.068;12.058;2023-04-03T04:33:52;4.80;;;2.57;;
10041;SDS011;5061;49.068;12.058;2023-04-03T04:37:13;3.73;;;2.20;;
10041;SDS011;5061;49.068;12.058;2023-04-03T04:40:33;2.33;;;2.13;;
10041;SDS011;5061;49.068;12.058;2023-04-03T04:43:54;5.73;;;2.80;;
10041;SDS011;5061;49.068;12.058;2023-04-03T04:47:15;3.17;;;2.50;;
10041;SDS011;5061;49.068;12.058;2023-04-03T04:50:36;3.43;;;2.57;;
10041;SDS011;5061;49.068;12.058;2023-04-03T04:53:56;3.63;;;2.33;;
10041;SDS011;5061;49.068;12.058;2023-04-03T04:57:17;2.77;;;2.50;;
10041;SDS011;5061;49.068;12.058;2023-04-03T05:00:38;5.53;;;3.03;;
10041;SDS011;5061;49.068;12.058;2023-04-03T05:03:58;4.70;;;2.77;;
10041;SDS011;5061;49.068;12.058;2023-04-03T05:07:19;3.37;;;2.43;;
10041;SDS011;5061;49.068;12.058;2023-04-03T05:10:39;2.20;;;2.00;;
10041;SDS011;5061;49.068;12.058;2023-04-03T05:14:01;4.43;;;3.00;;
10041;SDS011;5061;49.068;12.058;2023-04-03T05:17:22;2.50;;;2.30;;
10041;SDS011;5061;49.068;12.058;2023-04-03T05:20:42;3.20;;;2.50;;
10041;SDS011;5061;49.068;12.058;2023-04-03T05:24:03;3.50;;;2.63;;
10041;SDS011;5061;49.068;12.058;2023-04-03T05:27:24;4.97;;;2.80;;
10041;SDS011;5061;49.068;12.058;2023-04-03T05:30:45;2.23;;;2.03;;
10041;SDS011;5061;49.068;12.058;2023-04-03T05:34:05;2.93;;;2.63;;
10041;SDS011;5061;49.068;12.058;2023-04-03T05:37:26;3.30;;;2.60;;
10041;SDS011;5061;49.068;12.058;2023-04-03T05:40:47;2.83;;;2.40;;
10041;SDS011;5061;49.068;12.058;2023-04-03T05:44:07;4.93;;;3.23;;
10041;SDS011;5061;49.068;12.058;2023-04-03T05:47:28;7.70;;;2.93;;
10041;SDS011;5061;49.068;12.058;2023-04-03T05:50:48;10.53;;;3.57;;
10041;SDS011;5061;49.068;12.058;2023-04-03T05:54:11;3.40;;;2.73;;
10041;SDS011;5061;49.068;12.058;2023-04-03T05:57:36;5.33;;;2.30;;
10041;SDS011;5061;49.068;12.058;2023-04-03T06:00:57;4.00;;;2.50;;
10041;SDS011;5061;49.068;12.058;2023-04-03T06:04:17;4.07;;;2.73;;
10041;SDS011;5061;49.068;12.058;2023-04-03T06:07:39;2.80;;;2.33;;
10041;SDS011;5061;49.068;12.058;2023-04-03T06:10:59;3.50;;;2.67;;
10041;SDS011;5061;49.068;12.058;2023-04-03T06:14:21;8.83;;;2.70;;
10041;SDS011;5061;49.068;12.058;2023-04-03T06:17:42;2.73;;;2.53;;
10041;SDS011;5061;49.068;12.058;2023-04-03T06:21:03;2.50;;;2.30;;
10041;SDS011;5061;49.068;12.058;2023-04-03T06:24:24;3.03;;;2.67;;
10041;SDS011;5061;49.068;12.058;2023-04-03T06:27:45;2.73;;;2.37;;
10041;SDS011;5061;49.068;12.058;2023-04-03T06:31:06;2.53;;;2.30;;
10041;SDS011;5061;49.068;12.058;2023-04-03T06:34:26;3.53;;;2.57;;
10041;SDS011;5061;49.068;12.058;2023-04-03T06:37:47;4.17;;;2.60;;
10041;SDS011;5061;49.068;12.058;2023-04-03T06:41:08;3.10;;;2.80;;
10041;SDS011;5061;49.068;12.058;2023-04-03T06:44:28;3.67;;;2.70;;
10041;SDS011;5061;49.068;12.058;2023-04-03T06:47:49;5.33;;;2.80;;
10041;SDS011;5061;49.068;12.058;2023-04-03T06:51:16;3.40;;;2.70;;
10041;SDS011;5061;49.068;12.058;2023-04-03T06:54:37;3.13;;;2.40;;
10041;SDS011;5061;49.068;12.058;2023-04-03T06:58:00;2.93;;;2.67;;
10041;SDS011;5061;49.068;12.058;2023-04-03T07:01:21;4.40;;;3.30;;
10041;SDS011;5061;49.068;12.058;2023-04-03T07:04:42;3.10;;;2.77;;
10041;SDS011;5061;49.068;12.058;2023-04-03T07:08:02;2.83;;;2.60;;
10041;SDS011;5061;49.068;12.058;2023-04-03T07:11:23;3.40;;;2.63;;
10041;SDS011;5061;49.068;12.058;2023-04-03T07:14:44;3.33;;;2.17;;
10041;SDS011;5061;49.068;12.058;2023-04-03T07:18:04;2.70;;;2.10;;
10041;SDS011;5061;49.068;12.058;2023-04-03T07:21:25;4.00;;;2.20;;
10041;SDS011;5061;49.068;12.058;2023-04-03T07:24:49;4.93;;;2.40;;
10041;SDS011;5061;49.068;12.058;2023-04-03T07:28:10;3.87;;;2.63;;
10041;SDS011;5061;49.068;12.058;2023-04-03T07:31:31;3.03;;;2.00;;
10041;SDS011;5061;49.068;12.058;2023-04-03T07:34:53;4.37;;;2.63;;
10041;SDS011;5061;49.068;12.058;2023-04-03T07:38:14;8.13;;;3.13;;
10041;SDS011;5061;49.068;12.058;2023-04-03T07:41:36;5.67;;;2.90;;
10041;SDS011;5061;49.068;12.058;2023-04-03T07:44:56;3.80;;;2.50;;
10041;SDS011;5061;49.068;12.058;2023-04-03T07:48:18;2.33;;;2.10;;
10041;SDS011;5061;49.068;12.058;2023-04-03T07:51:40;4.53;;;2.60;;
10041;SDS011;5061;49.068;12.058;2023-04-03T07:55:01;3.53;;;2.13;;
10041;SDS011;5061;49.068;12.058;2023-04-03T07:58:22;3.73;;;2.50;;
10041;SDS011;5061;49.068;12.058;2023-04-03T08:01:43;5.27;;;2.03;;
10041;SDS011;5061;49.068;12.058;2023-04-03T08:05:03;6.10;;;2.20;;
10041;SDS011;5061;49.068;12.058;2023-04-03T08:08:25;4.47;;;2.17;;
10041;SDS011;5061;49.068;12.058;2023-04-03T08:11:46;2.77;;;1.90;;
10041;SDS011;5061;49.068;12.058;2023-04-03T08:15:07;2.70;;;2.13;;
10041;SDS011;5061;49.068;12.058;2023-04-03T08:18:28;5.43;;;2.13;;
10041;SDS011;5061;49.068;12.058;2023-04-03T08:21:48;2.43;;;1.93;;
10041;SDS011;5061;49.068;12.058;2023-04-03T08:25:09;4.33;;;2.50;;
10041;SDS011;5061;49.068;12.058;2023-04-03T08:28:30;2.10;;;1.77;;
10041;SDS011;5061;49.068;12.058;2023-04-03T08:31:51;2.30;;;1.47;;
10041;SDS011;5061;49.068;12.058;2023-04-03T08:35:11;2.17;;;1.73;;
10041;SDS011;5061;49.068;12.058;2023-04-03T08:38:32;2.47;;;1.83;;
10041;SDS011;5061;49.068;12.058;2023-04-03T08:41:57;3.47;;;1.87;;
10041;SDS011;5061;49.068;12.058;2023-04-03T08:49:11;2.67;;;1.40;;
10041;SDS011;5061;49.068;12.058;2023-04-03T08:52:56;2.10;;;1.40;;
10041;SDS011;5061;49.068;12.058;2023-04-03T08:56:18;3.37;;;1.90;;
10041;SDS011;5061;49.068;12.058;2023-04-03T08:59:40;2.17;;;1.40;;
10041;SDS011;5061;49.068;12.058;2023-04-03T09:03:01;2.23;;;1.23;;
10041;SDS011;5061;49.068;12.058;2023-04-03T09:06:23;1.60;;;1.33;;
10041;SDS011;5061;49.068;12.058;2023-04-03T09:09:50;2.63;;;1.07;;
10041;SDS011;5061;49.068;12.058;2023-04-03T09:23:55;1.63;;;1.20;;
10041;SDS011;5061;49.068;12.058;2023-04-03T09:27:19;2.00;;;0.90;;
10041;SDS011;5061;49.068;12.058;2023-04-03T09:30:40;3.73;;;1.70;;
10041;SDS011;5061;49.068;12.058;2023-04-03T09:34:02;1.93;;;1.33;;
10041;SDS011;5061;49.068;12.058;2023-04-03T09:38:00;1.10;;;0.90;;
10041;SDS011;5061;49.068;12.058;2023-04-03T09:41:16;1.87;;;1.50;;
10041;SDS011;5061;49.068;12.058;2023-04-03T09:44:38;2.17;;;1.50;;
10041;SDS011;5061;49.068;12.058;2023-04-03T09:48:21;2.70;;;1.57;;
10041;SDS011;5061;49.068;12.058;2023-04-03T09:51:41;1.00;;;0.90;;
10041;SDS011;5061;49.068;12.058;2023-04-03T09:55:07;1.33;;;0.93;;
10041;SDS011;5061;49.068;12.058;2023-04-03T09:58:34;1.73;;;1.10;;
10041;SDS011;5061;49.068;12.058;2023-04-03T10:02:18;2.33;;;1.33;;
10041;SDS011;5061;49.068;12.058;2023-04-03T10:05:45;2.70;;;1.47;;
10041;SDS011;5061;49.068;12.058;2023-04-03T10:09:15;2.23;;;1.17;;
10041;SDS011;5061;49.068;12.058;2023-04-03T10:12:44;2.17;;;1.30;;
10041;SDS011;5061;49.068;12.058;2023-04-03T10:16:10;1.73;;;1.20;;
10041;SDS011;5061;49.068;12.058;2023-04-03T10:23:23;1.50;;;1.20;;
10041;SDS011;5061;49.068;12.058;2023-04-03T10:26:51;4.97;;;1.80;;
10041;SDS011;5061;49.068;12.058;2023-04-03T10:30:42;5.03;;;1.17;;
10041;SDS011;5061;49.068;12.058;2023-04-03T10:34:31;2.10;;;1.57;;
10041;SDS011;5061;49.068;12.058;2023-04-03T10:45:08;3.87;;;1.70;;
10041;SDS011;5061;49.068;12.058;2023-04-03T10:56:36;4.47;;;1.60;;
10041;SDS011;5061;49.068;12.058;2023-04-03T11:03:49;2.70;;;1.77;;
10041;SDS011;5061;49.068;12.058;2023-04-03T11:10:58;5.40;;;2.73;;
10041;SDS011;5061;49.068;12.058;2023-04-03T11:14:30;1.93;;;1.70;;
10041;SDS011;5061;49.068;12.058;2023-04-03T11:18:01;8.87;;;3.60;;
10041;SDS011;5061;49.068;12.058;2023-04-03T11:21:28;7.43;;;3.20;;
10041;SDS011;5061;49.068;12.058;2023-04-03T11:25:04;7.40;;;3.37;;
10041;SDS011;5061;49.068;12.058;2023-04-03T11:28:30;4.30;;;2.40;;
10041;SDS011;5061;49.068;12.058;2023-04-03T11:32:43;2.47;;;1.97;;
10041;SDS011;5061;49.068;12.058;2023-04-03T11:35:59;3.13;;;1.93;;
10041;SDS011;5061;49.068;12.058;2023-04-03T11:46:19;2.20;;;1.20;;
10041;SDS011;5061;49.068;12.058;2023-04-03T11:54:34;1.60;;;1.30;;
10041;SDS011;5061;49.068;12.058;2023-04-03T11:58:11;2.50;;;1.40;;
10041;SDS011;5061;49.068;12.058;2023-04-03T12:05:43;1.33;;;1.23;;
10041;SDS011;5061;49.068;12.058;2023-04-03T12:08:58;1.43;;;1.20;;
10041;SDS011;5061;49.068;12.058;2023-04-03T12:15:51;1.50;;;1.20;;
10041;SDS011;5061;49.068;12.058;2023-04-03T12:22:35;1.70;;;1.20;;
10041;SDS011;5061;49.068;12.058;2023-04-03T12:26:01;1.10;;;1.00;;
10041;SDS011;5061;49.068;12.058;2023-04-03T12:44:42;1.00;;;0.90;;
10041;SDS011;5061;49.068;12.058;2023-04-03T12:48:22;3.27;;;1.40;;
10041;SDS011;5061;49.068;12.058;2023-04-03T12:51:46;1.43;;;1.00;;
10041;SDS011;5061;49.068;12.058;2023-04-03T12:55:12;1.70;;;1.20;;
10041;SDS011;5061;49.068;12.058;2023-04-03T12:58:38;2.00;;;1.13;;
10041;SDS011;5061;49.068;12.058;2023-04-03T13:01:59;1.93;;;1.30;;
10041;SDS011;5061;49.068;12.058;2023-04-03T13:05:21;3.83;;;2.00;;
10041;SDS011;5061;49.068;12.058;2023-04-03T13:08:53;2.20;;;1.23;;
10041;SDS011;5061;49.068;12.058;2023-04-03T13:12:16;4.80;;;1.67;;
10041;SDS011;5061;49.068;12.058;2023-04-03T13:15:44;4.70;;;1.50;;
10041;SDS011;5061;49.068;12.058;2023-04-03T13:19:18;1.00;;;0.90;;
10041;SDS011;5061;49.068;12.058;2023-04-03T13:22:40;4.03;;;1.50;;
10041;SDS011;5061;49.068;12.058;2023-04-03T13:26:17;3.87;;;1.40;;
10041;SDS011;5061;49.068;12.058;2023-04-03T13:29:41;1.60;;;1.30;;
10041;SDS011;5061;49.068;12.058;2023-04-03T13:33:06;2.30;;;1.13;;
10041;SDS011;5061;49.068;12.058;2023-04-03T13:36:43;1.43;;;1.30;;
10041;SDS011;5061;49.068;12.058;2023-04-03T13:43:27;1.20;;;1.10;;
10041;SDS011;5061;49.068;12.058;2023-04-03T13:47:01;1.80;;;1.23;;
10041;SDS011;5061;49.068;12.058;2023-04-03T13:54:41;2.77;;;1.50;;
10041;SDS011;5061;49.068;12.058;2023-04-03T14:01:38;6.23;;;1.30;;
10041;SDS011;5061;49.068;12.058;2023-04-03T14:05:05;2.30;;;1.50;;
10041;SDS011;5061;49.068;12.058;2023-04-03T14:08:28;7.17;;;0.93;;
10041;SDS011;5061;49.068;12.058;2023-04-03T14:11:49;2.10;;;1.17;;
10041;SDS011;5061;49.068;12.058;2023-04-03T14:15:17;1.67;;;1.20;;
10041;SDS011;5061;49.068;12.058;2023-04-03T14:18:40;2.30;;;1.37;;
10041;SDS011;5061;49.068;12.058;2023-04-03T14:22:05;0.93;;;0.93;;
10041;SDS011;5061;49.068;12.058;2023-04-03T14:25:38;2.40;;;1.17;;
10041;SDS011;5061;49.068;12.058;2023-04-03T14:28:59;1.93;;;1.40;;
10041;SDS011;5061;49.068;12.058;2023-04-03T14:32:21;1.10;;;1.00;;
10041;SDS011;5061;49.068;12.058;2023-04-03T14:35:43;2.47;;;1.10;;
10041;SDS011;5061;49.068;12.058;2023-04-03T14:39:04;1.53;;;1.10;;
10041;SDS011;5061;49.068;12.058;2023-04-03T14:42:28;1.50;;;1.00;;
10041;SDS011;5061;49.068;12.058;2023-04-03T14:45:51;2.10;;;1.60;;
10041;SDS011;5061;49.068;12.058;2023-04-03T14:49:13;1.37;;;1.10;;
10041;SDS011;5061;49.068;12.058;2023-04-03T14:52:35;1.30;;;1.20;;
10041;SDS011;5061;49.068;12.058;2023-04-03T14:55:56;5.37;;;1.40;;
10041;SDS011;5061;49.068;12.058;2023-04-03T14:59:17;3.10;;;1.27;;
10041;SDS011;5061;49.068;12.058;2023-04-03T15:02:40;3.70;;;1.23;;
10041;SDS011;5061;49.068;12.058;2023-04-03T15:06:01;1.30;;;1.20;;
10041;SDS011;5061;49.068;12.058;2023-04-03T15:09:23;3.73;;;2.53;;
10041;SDS011;5061;49.068;12.058;2023-04-03T15:12:45;2.30;;;1.67;;
10041;SDS011;5061;49.068;12.058;2023-04-03T15:16:14;2.10;;;1.30;;
10041;SDS011;5061;49.068;12.058;2023-04-03T15:19:37;2.10;;;1.23;;
10041;SDS011;5061;49.068;12.058;2023-04-03T15:22:59;2.00;;;1.30;;
10041;SDS011;5061;49.068;12.058;2023-04-03T15:26:24;1.37;;;1.27;;
10041;SDS011;5061;49.068;12.058;2023-04-03T15:29:47;1.23;;;1.13;;
10041;SDS011;5061;49.068;12.058;2023-04-03T15:33:07;2.37;;;1.47;;
10041;SDS011;5061;49.068;12.058;2023-04-03T15:36:28;1.20;;;0.97;;
10041;SDS011;5061;49.068;12.058;2023-04-03T15:39:49;1.40;;;1.10;;
10041;SDS011;5061;49.068;12.058;2023-04-03T15:43:10;2.90;;;1.97;;
10041;SDS011;5061;49.068;12.058;2023-04-03T15:46:30;2.10;;;1.30;;
10041;SDS011;5061;49.068;12.058;2023-04-03T15:49:53;2.60;;;1.40;;
10041;SDS011;5061;49.068;12.058;2023-04-03T15:53:15;2.10;;;1.30;;
10041;SDS011;5061;49.068;12.058;2023-04-03T15:56:36;1.50;;;1.30;;
10041;SDS011;5061;49.068;12.058;2023-04-03T15:59:56;3.60;;;1.40;;
10041;SDS011;5061;49.068;12.058;2023-04-03T16:03:18;2.40;;;1.70;;
10041;SDS011;5061;49.068;12.058;2023-04-03T16:06:41;2.93;;;1.50;;
10041;SDS011;5061;49.068;12.058;2023-04-03T16:10:02;1.60;;;1.43;;
10041;SDS011;5061;49.068;12.058;2023-04-03T16:13:23;1.53;;;1.30;;
10041;SDS011;5061;49.068;12.058;2023-04-03T16:16:44;1.93;;;1.60;;
10041;SDS011;5061;49.068;12.058;2023-04-03T16:20:06;2.13;;;1.17;;
10041;SDS011;5061;49.068;12.058;2023-04-03T16:23:28;2.23;;;1.33;;
10041;SDS011;5061;49.068;12.058;2023-04-03T16:26:49;1.50;;;1.40;;
10041;SDS011;5061;49.068;12.058;2023-04-03T16:30:10;1.90;;;1.63;;
10041;SDS011;5061;49.068;12.058;2023-04-03T16:33:31;2.83;;;1.20;;
10041;SDS011;5061;49.068;12.058;2023-04-03T16:36:52;3.83;;;1.40;;
10041;SDS011;5061;49.068;12.058;2023-04-03T16:40:16;2.77;;;1.50;;
10041;SDS011;5061;49.068;12.058;2023-04-03T16:43:37;4.90;;;1.77;;
10041;SDS011;5061;49.068;12.058;2023-04-03T16:46:57;1.90;;;1.53;;
10041;SDS011;5061;49.068;12.058;2023-04-03T16:50:18;1.70;;;1.30;;
10041;SDS011;5061;49.068;12.058;2023-04-03T16:53:39;1.80;;;1.50;;
10041;SDS011;5061;49.068;12.058;2023-04-03T16:56:59;2.50;;;1.40;;
10041;SDS011;5061;49.068;12.058;2023-04-03T17:00:20;3.53;;;1.50;;
10041;SDS011;5061;49.068;12.058;2023-04-03T17:03:41;2.33;;;1.30;;
10041;SDS011;5061;49.068;12.058;2023-04-03T17:07:02;4.40;;;1.70;;
10041;SDS011;5061;49.068;12.058;2023-04-03T17:10:26;2.37;;;1.70;;
10041;SDS011;5061;49.068;12.058;2023-04-03T17:13:47;1.67;;;1.57;;
10041;SDS011;5061;49.068;12.058;2023-04-03T17:17:07;2.00;;;1.60;;
10041;SDS011;5061;49.068;12.058;2023-04-03T17:20:29;2.50;;;1.63;;
10041;SDS011;5061;49.068;12.058;2023-04-03T17:23:50;2.90;;;1.97;;
10041;SDS011;5061;49.068;12.058;2023-04-03T17:27:17;3.17;;;2.03;;
10041;SDS011;5061;49.068;12.058;2023-04-03T17:30:37;3.70;;;1.80;;
10041;SDS011;5061;49.068;12.058;2023-04-03T17:33:58;3.40;;;1.87;;
10041;SDS011;5061;49.068;12.058;2023-04-03T17:37:22;1.90;;;1.67;;
10041;SDS011;5061;49.068;12.058;2023-04-03T17:40:43;2.33;;;1.40;;
10041;SDS011;5061;49.068;12.058;2023-04-03T17:44:04;2.60;;;1.90;;
10041;SDS011;5061;49.068;12.058;2023-04-03T17:47:25;3.40;;;1.90;;
10041;SDS011;5061;49.068;12.058;2023-04-03T17:50:46;1.67;;;1.40;;
10041;SDS011;5061;49.068;12.058;2023-04-03T17:54:07;2.40;;;1.47;;
10041;SDS011;5061;49.068;12.058;2023-04-03T17:57:28;2.30;;;1.70;;
10041;SDS011;5061;49.068;12.058;2023-04-03T18:00:50;1.87;;;1.30;;
10041;SDS011;5061;49.068;12.058;2023-04-03T18:04:11;1.87;;;1.67;;
10041;SDS011;5061;49.068;12.058;2023-04-03T18:07:32;2.87;;;1.70;;
10041;SDS011;5061;49.068;12.058;2023-04-03T18:10:53;4.00;;;1.83;;
10041;SDS011;5061;49.068;12.058;2023-04-03T18:14:14;1.97;;;1.77;;
10041;SDS011;5061;49.068;12.058;2023-04-03T18:17:37;1.33;;;1.23;;
10041;SDS011;5061;49.068;12.058;2023-04-03T18:20:58;1.70;;;1.50;;
10041;SDS011;5061;49.068;12.058;2023-04-03T18:24:19;2.27;;;1.63;;
10041;SDS011;5061;49.068;12.058;2023-04-03T18:27:42;2.10;;;1.60;;
10041;SDS011;5061;49.068;12.058;2023-04-03T18:31:04;3.00;;;2.00;;
10041;SDS011;5061;49.068;12.058;2023-04-03T18:34:29;3.07;;;1.90;;
10041;SDS011;5061;49.068;12.058;2023-04-03T18:37:50;3.87;;;2.30;;
10041;SDS011;5061;49.068;12.058;2023-04-03T18:41:11;4.33;;;2.80;;
10041;SDS011;5061;49.068;12.058;2023-04-03T18:44:32;3.50;;;2.30;;
10041;SDS011;5061;49.068;12.058;2023-04-03T18:47:54;3.43;;;2.60;;
10041;SDS011;5061;49.068;12.058;2023-04-03T18:51:15;2.33;;;1.63;;
10041;SDS011;5061;49.068;12.058;2023-04-03T18:54:36;1.33;;;1.23;;
10041;SDS011;5061;49.068;12.058;2023-04-03T18:57:57;1.47;;;1.37;;
10041;SDS011;5061;49.068;12.058;2023-04-03T19:01:18;2.90;;;1.87;;
10041;SDS011;5061;49.068;12.058;2023-04-03T19:04:39;2.37;;;1.60;;
10041;SDS011;5061;49.068;12.058;2023-04-03T19:08:00;2.50;;;1.83;;
10041;SDS011;5061;49.068;12.058;2023-04-03T19:11:20;3.87;;;2.00;;
10041;SDS011;5061;49.068;12.058;2023-04-03T19:14:42;1.90;;;1.60;;
10041;SDS011;5061;49.068;12.058;2023-04-03T19:18:02;1.80;;;1.70;;
10041;SDS011;5061;49.068;12.058;2023-04-03T19:21:23;3.10;;;1.77;;
10041;SDS011;5061;49.068;12.058;2023-04-03T19:24:44;2.87;;;1.73;;
10041;SDS011;5061;49.068;12.058;2023-04-03T19:28:07;2.10;;;1.80;;
10041;SDS011;5061;49.068;12.058;2023-04-03T19:31:28;2.97;;;2.30;;
10041;SDS011;5061;49.068;12.058;2023-04-03T19:34:50;2.43;;;1.80;;
10041;SDS011;5061;49.068;12.058;2023-04-03T19:38:11;2.60;;;1.83;;
10041;SDS011;5061;49.068;12.058;2023-04-03T19:41:32;2.30;;;1.73;;
10041;SDS011;5061;49.068;12.058;2023-04-03T19:44:55;3.30;;;2.03;;
10041;SDS011;5061;49.068;12.058;2023-04-03T19:48:16;2.10;;;1.73;;
10041;SDS011;5061;49.068;12.058;2023-04-03T19:51:37;4.00;;;2.03;;
10041;SDS011;5061;49.068;12.058;2023-04-03T19:54:57;2.80;;;1.90;;
10041;SDS011;5061;49.068;12.058;2023-04-03T19:58:18;5.00;;;1.83;;
10041;SDS011;5061;49.068;12.058;2023-04-03T20:01:39;3.13;;;2.13;;
10041;SDS011;5061;49.068;12.058;2023-04-03T20:05:00;4.83;;;2.20;;
10041;SDS011;5061;49.068;12.058;2023-04-03T20:08:20;2.00;;;1.77;;
10041;SDS011;5061;49.068;12.058;2023-04-03T20:11:41;4.97;;;1.70;;
10041;SDS011;5061;49.068;12.058;2023-04-03T20:15:06;1.87;;;1.50;;
10041;SDS011;5061;49.068;12.058;2023-04-03T20:18:27;2.40;;;1.73;;
10041;SDS011;5061;49.068;12.058;2023-04-03T20:21:49;2.77;;;1.30;;
10041;SDS011;5061;49.068;12.058;2023-04-03T20:25:10;1.87;;;1.23;;
10041;SDS011;5061;49.068;12.058;2023-04-03T20:28:32;2.07;;;1.60;;
10041;SDS011;5061;49.068;12.058;2023-04-03T20:31:53;1.80;;;1.60;;
10041;SDS011;5061;49.068;12.058;2023-04-03T20:35:14;1.60;;;1.27;;
10041;SDS011;5061;49.068;12.058;2023-04-03T20:38:35;1.63;;;1.20;;
10041;SDS011;5061;49.068;12.058;2023-04-03T20:41:55;1.53;;;1.20;;
10041;SDS011;5061;49.068;12.058;2023-04-03T20:45:16;1.77;;;1.17;;
10041;SDS011;5061;49.068;12.058;2023-04-03T20:48:37;3.37;;;1.60;;
10041;SDS011;5061;49.068;12.058;2023-04-03T20:51:58;1.73;;;1.37;;
10041;SDS011;5061;49.068;12.058;2023-04-03T20:55:19;3.23;;;1.60;;
10041;SDS011;5061;49.068;12.058;2023-04-03T20:58:41;2.60;;;1.83;;
10041;SDS011;5061;49.068;12.058;2023-04-03T21:02:02;2.80;;;1.67;;
10041;SDS011;5061;49.068;12.058;2023-04-03T21:05:23;1.53;;;1.23;;
10041;SDS011;5061;49.068;12.058;2023-04-03T21:20:02;1.60;;;1.40;;
10041;SDS011;5061;49.068;12.058;2023-04-03T21:23:24;1.53;;;1.43;;
10041;SDS011;5061;49.068;12.058;2023-04-03T21:26:45;2.70;;;1.50;;
10041;SDS011;5061;49.068;12.058;2023-04-03T21:30:06;2.83;;;1.63;;
10041;SDS011;5061;49.068;12.058;2023-04-03T21:33:27;4.40;;;1.80;;
10041;SDS011;5061;49.068;12.058;2023-04-03T21:36:48;4.37;;;1.80;;
10041;SDS011;5061;49.068;12.058;2023-04-03T21:40:08;6.13;;;1.87;;
10041;SDS011;5061;49.068;12.058;2023-04-03T21:43:30;3.73;;;2.10;;
10041;SDS011;5061;49.068;12.058;2023-04-03T21:46:50;2.60;;;1.63;;
10041;SDS011;5061;49.068;12.058;2023-04-03T21:50:13;3.27;;;1.63;;
10041;SDS011;5061;49.068;12.058;2023-04-03T21:53:34;2.07;;;1.37;;
10041;SDS011;5061;49.068;12.058;2023-04-03T21:56:55;2.10;;;1.37;;
10041;SDS011;5061;49.068;12.058;2023-04-03T22:00:15;2.43;;;1.33;;
10041;SDS011;5061;49.068;12.058;2023-04-03T22:03:38;1.60;;;1.10;;